Latest Weather Observations for Hay Point

IDQ60801

Issued at 3:02 pm EST Friday 31 July 2015 (issued every 30 minutes, with the page automatically refreshed every 10 minutes)

About weather observations | Map of weather stations | Latest weather observations for QLD | Other Formats
Station Details ID: 033317 Name: HAY POINT Lat: -21.29 Lon: 149.30 Height: 7.0 m
Data from the previous 72 hours. | See also: Recent months for locations in Queensland
Date/Time
EST
Temp
°C
App
Temp
°C
Dew
Point
Rel
Hum
%
Delta-T
°C
Wind Press
QNH
hPa
Press
MSL
hPa
Rain
since 9 am
mm
Dir
 
Spd
km/h
Gust
km/h
Spd
kts
Gust
kts
31/03:00pm - - - - - SSE 24 30 13 16 - - -
31/02:30pm - - - - - SE 28 33 15 18 - - -
31/02:00pm - - - - - SSE 28 35 15 19 - - -
31/01:30pm - - - - - SSE 28 32 15 17 - - -
31/01:00pm - - - - - SSE 28 32 15 17 - - -
31/12:30pm - - - - - SSE 33 35 18 19 - - -
31/12:00pm - - - - - SSE 32 35 17 19 - - -
31/11:30am - - - - - SE 32 35 17 19 - - -
31/11:00am - - - - - SE 24 28 13 15 - - -
31/10:30am - - - - - SSE 20 26 11 14 - - -
31/10:00am - - - - - SSE 22 32 12 17 - - -
31/09:30am - - - - - S 22 28 12 15 - - -
31/09:00am - - - - - S 24 32 13 17 - - -
31/08:30am - - - - - S 24 30 13 16 - - -
31/08:00am - - - - - S 26 33 14 18 - - -
31/07:30am - - - - - S 22 28 12 15 - - -
31/07:00am - - - - - SSW 20 28 11 15 - - -
31/06:30am - - - - - SSW 22 28 12 15 - - -
31/06:00am - - - - - S 22 28 12 15 - - -
31/05:30am - - - - - SSW 17 20 9 11 - - -
31/05:00am - - - - - S 20 26 11 14 - - -
31/04:30am - - - - - S 17 22 9 12 - - -
31/04:00am - - - - - S 17 22 9 12 - - -
31/03:30am - - - - - S 19 26 10 14 - - -
31/03:00am - - - - - S 19 24 10 13 - - -
31/02:30am - - - - - SSW 20 28 11 15 - - -
31/02:00am - - - - - SSW 15 19 8 10 - - -
31/01:30am - - - - - S 19 24 10 13 - - -
31/01:00am - - - - - SSW 17 19 9 10 - - -
31/12:30am - - - - - S 20 26 11 14 - - -
31/12:00am - - - - - S 19 22 10 12 - - -
 
Date/Time
EST
Temp
°C
App
Temp
°C
Dew
Point
Rel
Hum
%
Delta-T
°C
Wind Press
QNH
hPa
Press
MSL
hPa
Rain
since 9 am
mm
Dir
 
Spd
km/h
Gust
km/h
Spd
kts
Gust
kts
30/11:30pm - - - - - SSW 22 32 12 17 - - -
30/11:00pm - - - - - SSE 26 32 14 17 - - -
30/10:30pm - - - - - SE 32 35 17 19 - - -
30/10:00pm - - - - - SSE 32 35 17 19 - - -
30/09:30pm - - - - - SSE 33 39 18 21 - - -
30/09:00pm - - - - - SSE 33 37 18 20 - - -
30/08:30pm - - - - - SSE 30 35 16 19 - - -
30/08:00pm - - - - - SSE 26 30 14 16 - - -
30/07:30pm - - - - - SSE 28 33 15 18 - - -
30/07:00pm - - - - - SSE 30 33 16 18 - - -
30/06:30pm - - - - - SSE 32 35 17 19 - - -
30/06:00pm - - - - - SSE 32 35 17 19 - - -
30/05:30pm - - - - - SSE 32 35 17 19 - - -
30/05:00pm - - - - - SSE 33 39 18 21 - - -
30/04:30pm - - - - - SSE 33 39 18 21 - - -
30/04:00pm - - - - - SSE 33 39 18 21 - - -
30/03:30pm - - - - - SSE 33 39 18 21 - - -
30/03:00pm - - - - - SSE 33 39 18 21 - - -
30/02:30pm - - - - - SSE 28 35 15 19 - - -
30/02:00pm - - - - - SSE 32 37 17 20 - - -
30/01:30pm - - - - - SSE 33 37 18 20 - - -
30/01:00pm - - - - - SSE 32 35 17 19 - - -
30/12:30pm - - - - - SSE 32 35 17 19 - - -
30/12:00pm - - - - - SSE 33 39 18 21 - - -
30/11:30am - - - - - SSE 33 37 18 20 - - -
30/11:00am - - - - - SSE 32 39 17 21 - - -
30/10:30am - - - - - SSE 32 39 17 21 - - -
30/10:00am - - - - - SSE 32 39 17 21 - - -
30/09:30am - - - - - SSE 33 39 18 21 - - -
30/09:00am - - - - - SSE 32 41 17 22 - - -
30/08:30am - - - - - SSE 32 44 17 24 - - -
30/08:00am - - - - - S 30 39 16 21 - - -
30/07:30am - - - - - S 30 41 16 22 - - -
30/07:00am - - - - - S 28 35 15 19 - - -
30/06:30am - - - - - S 28 35 15 19 - - -
30/06:00am - - - - - S 30 39 16 21 - - -
30/05:30am - - - - - S 30 37 16 20 - - -
30/05:00am - - - - - S 28 37 15 20 - - -
30/04:30am - - - - - S 30 39 16 21 - - -
30/04:00am - - - - - S 26 33 14 18 - - -
30/03:30am - - - - - S 30 37 16 20 - - -
30/03:00am - - - - - S 26 32 14 17 - - -
30/02:30am - - - - - SSW 19 26 10 14 - - -
30/02:00am - - - - - SSW 20 24 11 13 - - -
30/01:30am - - - - - S 22 26 12 14 - - -
30/01:00am - - - - - SSW 22 26 12 14 - - -
30/12:30am - - - - - S 20 26 11 14 - - -
30/12:00am - - - - - SSW 20 28 11 15 - - -
 
Date/Time
EST
Temp
°C
App
Temp
°C
Dew
Point
Rel
Hum
%
Delta-T
°C
Wind Press
QNH
hPa
Press
MSL
hPa
Rain
since 9 am
mm
Dir
 
Spd
km/h
Gust
km/h
Spd
kts
Gust
kts
29/11:30pm - - - - - SSE 35 41 19 22 - - -
29/11:00pm - - - - - SSE 37 43 20 23 - - -
29/10:30pm - - - - - SE 39 44 21 24 - - -
29/10:00pm - - - - - SE 33 41 18 22 - - -
29/09:30pm - - - - - SE 35 39 19 21 - - -
29/09:00pm - - - - - SE 33 41 18 22 - - -
29/08:30pm - - - - - SE 30 37 16 20 - - -
29/08:00pm - - - - - ESE 37 48 20 26 - - -
29/07:30pm - - - - - ESE 37 46 20 25 - - -
29/07:00pm - - - - - ESE 43 52 23 28 - - -
29/06:30pm - - - - - SE 33 46 18 25 - - -
29/06:00pm - - - - - ESE 33 43 18 23 - - -
29/05:30pm - - - - - SE 30 39 16 21 - - -
29/05:00pm - - - - - SE 28 37 15 20 - - -
29/04:30pm - - - - - SE 33 41 18 22 - - -
29/04:00pm - - - - - SE 32 41 17 22 - - -
29/03:30pm - - - - - SSE 35 43 19 23 - - -
29/03:00pm - - - - - SSE 35 43 19 23 - - -
29/02:30pm - - - - - SSE 39 48 21 26 - - -
29/02:00pm - - - - - SSE 41 48 22 26 - - -
29/01:30pm - - - - - SSE 39 46 21 25 - - -
29/01:00pm - - - - - SSE 37 43 20 23 - - -
29/12:30pm - - - - - SSE 35 43 19 23 - - -
29/12:00pm - - - - - SSE 39 46 21 25 - - -
29/11:30am - - - - - SSE 43 52 23 28 - - -
29/11:00am - - - - - SSE 46 56 25 30 - - -
29/10:30am - - - - - SSE 46 56 25 30 - - -
29/10:00am - - - - - SSE 44 59 24 32 - - -
29/09:30am - - - - - SSE 46 54 25 29 - - -
29/09:00am - - - - - SSE 43 54 23 29 - - -
29/08:30am - - - - - SSE 41 54 22 29 - - -
29/08:00am - - - - - SSE 39 52 21 28 - - -
29/07:30am - - - - - SSE 35 48 19 26 - - -
29/07:00am - - - - - SSE 39 52 21 28 - - -
29/06:30am - - - - - SSE 37 48 20 26 - - -
29/06:00am - - - - - SSE 37 48 20 26 - - -
29/05:30am - - - - - SSE 39 50 21 27 - - -
29/05:00am - - - - - SSE 39 50 21 27 - - -
29/04:30am - - - - - SSE 37 48 20 26 - - -
29/04:00am - - - - - SSE 33 44 18 24 - - -
29/03:30am - - - - - S 28 39 15 21 - - -
29/03:00am - - - - - S 28 35 15 19 - - -
29/02:30am - - - - - SSE 33 46 18 25 - - -
29/02:00am - - - - - SSE 28 37 15 20 - - -
29/01:30am - - - - - S 28 37 15 20 - - -
29/01:00am - - - - - S 24 28 13 15 - - -
29/12:30am - - - - - S 22 30 12 16 - - -
29/12:00am - - - - - S 28 44 15 24 - - -
 
Date/Time
EST
Temp
°C
App
Temp
°C
Dew
Point
Rel
Hum
%
Delta-T
°C
Wind Press
QNH
hPa
Press
MSL
hPa
Rain
since 9 am
mm
Dir
 
Spd
km/h
Gust
km/h
Spd
kts
Gust
kts
28/11:55pm - - - - - SSE 35 44 19 24 - - -
28/11:30pm - - - - - SE 39 44 21 24 - - -
28/11:00pm - - - - - SE 39 46 21 25 - - -
28/10:30pm - - - - - SSE 37 46 20 25 - - -
28/10:00pm - - - - - SSE 32 41 17 22 - - -
28/09:30pm - - - - - SSE 28 33 15 18 - - -
28/09:00pm - - - - - SSE 22 32 12 17 - - -
28/08:30pm - - - - - SSE 26 32 14 17 - - -
28/08:00pm - - - - - SSE 30 35 16 19 - - -
28/07:30pm - - - - - SSE 35 41 19 22 - - -
28/07:00pm - - - - - SSE 39 44 21 24 - - -
28/06:30pm - - - - - SSE 37 43 20 23 - - -
28/06:00pm - - - - - SSE 39 48 21 26 - - -
28/05:30pm - - - - - SSE 43 50 23 27 - - -
28/05:00pm - - - - - SSE 41 48 22 26 - - -
28/04:30pm - - - - - SSE 43 50 23 27 - - -
28/04:00pm - - - - - SSE 41 50 22 27 - - -
28/03:30pm - - - - - SSE 39 46 21 25 - - -

Other Formats:

Comma delimited format used in spreadsheet applications
http://www.bom.gov.au/fwo/IDQ60801/IDQ60801.99367.axf

JavaScript Object Notation format (JSON) in row-major order
http://www.bom.gov.au/fwo/IDQ60801/IDQ60801.99367.json